Aérodrome :
LOGIN :

S'inscrire | Disclaimer

   EN    FR    IT 

 










Légende :    VFR   VFR Marginal   IFR   IFR Intensif   IFR Très Intensif
Visi : 
Plafond : 
>= 8 km
>= 3000ft
5 à 8 km
1000 à 3000 ft
1500m à 5 km
500 à 1000 ft
800 à 1500m
200 à 500 ft
< 800m
< 200 ft
Symboles :   Orages  Brouillard  Fortes neiges  Fortes précipitations  Vent > 20 kt
SIGMETs :   Divers  Orages  Givrage  Turbulence  Onde Orograph.  Cendres Volcan.






- Altitude de l'aérodrome : 87 ft
- Code IATA : AHO


LIEA - Fertilia Alghero

DERNIER METAR :
  • 032050Z 02003KT 320V060 CAVOK 24/22 Q1017

METARs EXPIRÉS :
  • 032020Z 02004KT 340V050 CAVOK 26/21 Q1016
  • 031950Z 02004KT CAVOK 26/21 Q1016
  • 031920Z 04004KT CAVOK 26/17 Q1016
  • 031850Z 35002KT CAVOK 28/17 Q1016
  • 031820Z 30002KT CAVOK 29/16 Q1016
  • 030520Z 04005KT CAVOK 19/15 Q1017
  • 031750Z 30004KT CAVOK 29/16 Q1016

TAF TAF LIEA
Valide du 03 à 18h jusqu'au 04 à 18h UTC


031700Z 0318/0418 03007KT 9999 FEW050
BECMG 0410/0412 29010KT



MET'MAP, la Météo Aéronautique d'un coup d'oeil ! - Copyright ORBIFLY Décembre 2007 - Disclaimer

ORBIFLY MET'MAP TEAM :

Programmation & Développement : Alexandra Zaïnal
Sur une idée originale de : Baudouin d'Aumeries
Soutien technique & logistique : Manuel Goepfert
Assistance : Marc-Olivier Méhu




SOURCES & CREDITS :

   NOAA